createdAt,value
2019-04-20T00:00:42.941Z,11.4014
2019-04-20T00:01:45.310Z,11.4014
2019-04-20T00:02:53.209Z,11.3712
2019-04-20T00:03:56.356Z,11.3611
2019-04-20T00:04:59.297Z,11.3611
2019-04-20T00:06:03.425Z,11.3510
2019-04-20T00:07:06.258Z,11.3510
2019-04-20T00:08:19.227Z,11.3510
2019-04-20T00:09:24.020Z,11.3611
2019-04-20T00:10:27.365Z,11.3611
2019-04-20T00:11:45.886Z,11.3611
2019-04-20T00:12:53.616Z,11.3510
2019-04-20T00:13:55.210Z,11.3309
2019-04-20T00:14:56.499Z,11.3208
2019-04-20T00:15:58.305Z,11.2906
2019-04-20T00:17:01.290Z,11.2704
2019-04-20T00:18:06.694Z,11.2503
2019-04-20T00:19:15.293Z,11.2302
2019-04-20T00:20:25.956Z,11.2302
2019-04-20T00:21:27.293Z,11.2302
2019-04-20T00:22:38.217Z,11.2302
2019-04-20T00:23:43.071Z,11.2201
2019-04-20T00:24:49.649Z,11.1899
2019-04-20T00:26:05.678Z,11.1798
2019-04-20T00:27:28.464Z,11.1697
2019-04-20T00:28:31.607Z,11.1194
2019-04-20T00:29:36.696Z,11.1093
2019-04-20T00:30:48.039Z,11.0690
2019-04-20T00:31:45.945Z,11.0489
2019-04-20T00:32:55.537Z,11.0187
2019-04-20T00:33:59.359Z,10.9683
2019-04-20T00:34:58.302Z,10.9583
2019-04-20T00:36:01.284Z,10.9280
2019-04-20T00:37:05.348Z,10.9180
2019-04-20T00:38:10.293Z,10.8878
2019-04-20T00:39:15.114Z,10.8676
2019-04-20T00:40:21.280Z,10.8575
2019-04-20T00:41:25.720Z,10.8575
2019-04-20T00:42:36.687Z,10.8374
2019-04-20T00:43:39.102Z,10.8173
2019-04-20T00:44:49.593Z,10.8072
2019-04-20T00:46:02.000Z,10.7870
2019-04-20T00:47:14.222Z,10.7770
2019-04-20T00:48:22.669Z,10.7568
2019-04-20T00:49:30.622Z,10.7568
2019-04-20T00:50:40.404Z,10.7468
2019-04-20T00:51:51.148Z,10.7468
2019-04-20T00:52:54.214Z,10.7568
2019-04-20T00:53:51.861Z,10.7468
2019-04-20T00:54:56.273Z,10.7770
2019-04-20T00:55:59.321Z,10.7770
2019-04-20T00:57:13.492Z,10.7568
2019-04-20T00:58:19.308Z,10.7770
2019-04-20T00:59:32.333Z,10.7870
2019-04-20T01:00:40.733Z,10.8072
2019-04-20T01:01:52.348Z,10.8173
2019-04-20T01:02:55.526Z,10.8374
2019-04-20T01:04:10.733Z,10.8575
2019-04-20T01:06:24.813Z,10.8878
2019-04-20T01:07:29.085Z,10.8878
2019-04-20T01:08:23.355Z,10.8374
2019-04-20T01:09:26.523Z,10.8173
2019-04-20T01:10:37.205Z,10.8072
2019-04-20T01:11:42.250Z,10.7870
2019-04-20T01:12:45.847Z,10.7770
2019-04-20T01:13:55.388Z,10.7468
2019-04-20T01:15:02.743Z,10.7367
2019-04-20T01:16:19.491Z,10.7065
2019-04-20T01:17:14.310Z,10.6763
2019-04-20T01:18:17.303Z,10.6863
2019-04-20T01:19:20.570Z,10.6763
2019-04-20T01:20:26.551Z,10.6763
2019-04-20T01:21:33.430Z,10.6259
2019-04-20T01:22:44.637Z,10.6058
2019-04-20T01:23:52.639Z,10.6058
2019-04-20T01:24:54.611Z,10.6058
2019-04-20T01:26:03.958Z,10.6259
2019-04-20T01:27:16.752Z,10.6360
2019-04-20T01:28:35.461Z,10.6259
2019-04-20T01:29:32.381Z,10.6058
2019-04-20T01:30:35.964Z,10.6259
2019-04-20T01:31:52.703Z,10.5957
2019-04-20T01:33:00.764Z,10.5655
2019-04-20T01:34:03.046Z,10.5554
2019-04-20T01:35:14.728Z,10.5353
2019-04-20T01:36:34.960Z,10.5353
2019-04-20T01:37:32.792Z,10.5554
2019-04-20T01:38:45.040Z,10.5655
2019-04-20T01:39:43.109Z,10.5957
2019-04-20T01:40:44.428Z,10.6058
2019-04-20T01:41:47.690Z,10.5957
2019-04-20T01:42:51.202Z,10.5957
2019-04-20T01:43:54.453Z,10.5554
2019-04-20T01:44:58.708Z,10.5252
2019-04-20T01:46:11.314Z,10.5252
2019-04-20T01:47:12.068Z,10.5051
2019-04-20T01:48:24.959Z,10.5051
2019-04-20T01:49:28.638Z,10.4950
2019-04-20T01:50:35.345Z,10.4950
2019-04-20T01:51:53.813Z,10.4849
2019-04-20T01:52:58.263Z,10.4648
2019-04-20T01:54:12.018Z,10.4648
2019-04-20T01:55:24.851Z,10.4849
2019-04-20T01:56:30.249Z,10.5051
2019-04-20T01:57:25.977Z,10.5353
2019-04-20T01:58:50.592Z,10.5353
2019-04-20T01:59:49.338Z,10.5353
2019-04-20T02:00:45.947Z,10.5051
2019-04-20T02:01:55.757Z,10.4849
2019-04-20T02:03:01.942Z,10.4446
2019-04-20T02:04:07.330Z,10.4144
2019-04-20T02:05:20.588Z,10.4044
2019-04-20T02:06:25.071Z,10.4245
2019-04-20T02:07:36.703Z,10.4648
2019-04-20T02:08:38.310Z,10.4849
2019-04-20T02:09:47.483Z,10.4849
2019-04-20T02:10:54.369Z,10.4849
2019-04-20T02:12:06.902Z,10.4950
2019-04-20T02:13:06.682Z,10.4950
2019-04-20T02:14:13.438Z,10.4950
2019-04-20T02:15:28.127Z,10.4648
2019-04-20T02:16:33.606Z,10.4648
2019-04-20T02:17:40.752Z,10.4446
2019-04-20T02:18:58.729Z,10.4446
2019-04-20T02:20:10.450Z,10.3842
2019-04-20T02:21:16.582Z,10.3540
2019-04-20T02:22:15.719Z,10.3439
2019-04-20T02:23:25.371Z,10.3137
2019-04-20T02:24:21.676Z,10.2835
2019-04-20T02:25:24.955Z,10.3036
2019-04-20T02:26:28.320Z,10.2634
2019-04-20T02:27:38.646Z,10.2835
2019-04-20T02:29:06.033Z,10.2533
2019-04-20T02:30:14.166Z,10.2533
2019-04-20T02:31:34.914Z,10.2332
2019-04-20T02:32:40.267Z,10.2029
2019-04-20T02:33:59.305Z,10.1929
2019-04-20T02:36:11.033Z,10.1727
2019-04-20T02:38:22.593Z,10.1627
2019-04-20T02:40:38.846Z,10.1022
2019-04-20T02:41:47.737Z,10.0922
2019-04-20T02:42:51.585Z,10.0720
2019-04-20T02:44:06.016Z,10.0418
2019-04-20T02:45:13.020Z,10.0418
2019-04-20T02:46:12.322Z,10.0418
2019-04-20T02:47:21.413Z,10.0418
2019-04-20T02:48:25.268Z,10.0418
2019-04-20T02:49:42.076Z,10.0519
2019-04-20T02:50:43.260Z,10.0519
2019-04-20T02:53:06.082Z,10.0922
2019-04-20T02:55:14.450Z,10.0116
2019-04-20T02:58:41.562Z,9.9109
2019-04-20T02:59:59.547Z,9.9109
2019-04-20T03:00:44.792Z,9.9109
2019-04-20T03:01:52.167Z,9.9210
2019-04-20T03:02:52.871Z,9.9210
2019-04-20T03:03:52.623Z,9.9210
2019-04-20T03:05:06.727Z,9.9210
2019-04-20T03:06:18.478Z,9.9411
2019-04-20T03:07:23.951Z,9.9512
2019-04-20T03:08:38.223Z,9.9713
2019-04-20T03:09:46.988Z,9.9915
2019-04-20T03:11:00.773Z,9.9915
2019-04-20T03:12:23.835Z,9.9814
2019-04-20T03:13:16.737Z,9.9814
2019-04-20T03:14:18.564Z,9.9713
2019-04-20T03:15:30.203Z,9.9512
2019-04-20T03:16:32.415Z,9.9713
2019-04-20T03:17:46.430Z,9.9512
2019-04-20T03:18:51.205Z,9.9512
2019-04-20T03:19:54.992Z,9.9411
2019-04-20T03:21:12.734Z,9.9210
2019-04-20T03:22:23.622Z,9.9109
2019-04-20T03:23:30.053Z,9.8605
2019-04-20T03:24:38.812Z,9.8404
2019-04-20T03:25:43.076Z,9.8303
2019-04-20T03:26:40.812Z,9.8203
2019-04-20T03:27:51.638Z,9.8303
2019-04-20T03:30:42.408Z,9.8404
2019-04-20T03:35:00.591Z,9.8303
2019-04-20T03:36:01.935Z,9.8303
2019-04-20T03:37:08.488Z,9.8203
2019-04-20T03:38:00.160Z,9.8001
2019-04-20T03:39:16.767Z,9.7900
2019-04-20T03:40:17.607Z,9.7598
2019-04-20T03:41:19.553Z,9.7598
2019-04-20T03:42:20.185Z,9.7598
2019-04-20T03:43:24.446Z,9.7598
2019-04-20T03:44:30.702Z,9.7397
2019-04-20T03:45:42.702Z,9.7296
2019-04-20T03:46:51.802Z,9.6893
2019-04-20T03:48:03.043Z,9.6793
2019-04-20T03:49:21.357Z,9.6591
2019-04-20T03:50:31.925Z,9.6793
2019-04-20T03:51:45.346Z,9.6591
2019-04-20T03:52:43.628Z,9.6793
2019-04-20T03:53:50.326Z,9.6793
2019-04-20T03:54:51.366Z,9.6591
2019-04-20T03:56:02.216Z,9.6490
2019-04-20T03:57:24.777Z,9.6490
2019-04-20T03:58:24.217Z,9.6490
2019-04-20T03:59:27.657Z,9.6490
2019-04-20T04:00:36.205Z,9.6591
2019-04-20T04:02:08.746Z,9.6490
2019-04-20T04:03:09.387Z,9.6188
2019-04-20T04:04:12.159Z,9.6188
2019-04-20T04:05:09.457Z,9.6490
2019-04-20T04:06:09.616Z,9.6591
2019-04-20T04:07:18.510Z,9.7195
2019-04-20T04:08:26.686Z,9.7296
2019-04-20T04:09:32.634Z,9.7296
2019-04-20T04:10:50.507Z,9.7195
2019-04-20T04:11:56.030Z,9.7397
2019-04-20T04:12:49.742Z,9.7598
2019-04-20T04:13:54.599Z,9.7699
2019-04-20T04:14:56.324Z,9.8001
2019-04-20T04:16:04.425Z,9.8203
2019-04-20T04:17:07.455Z,9.8203
2019-04-20T04:18:17.835Z,9.8203
2019-04-20T04:19:25.478Z,9.8203
2019-04-20T04:20:34.380Z,9.8001
2019-04-20T04:21:49.842Z,9.8001
2019-04-20T04:23:00.113Z,9.7900
2019-04-20T04:24:05.515Z,9.7699
2019-04-20T04:25:15.008Z,9.7598
2019-04-20T04:26:27.441Z,9.7397
2019-04-20T04:27:38.559Z,9.7195
2019-04-20T04:28:41.139Z,9.6893
2019-04-20T04:29:51.279Z,9.6793
2019-04-20T04:30:59.937Z,9.6490
2019-04-20T04:32:17.299Z,9.6390
2019-04-20T04:34:22.937Z,9.6088
2019-04-20T04:35:24.423Z,9.6088
2019-04-20T04:36:35.915Z,9.5886
2019-04-20T04:37:45.925Z,9.5786
2019-04-20T04:38:58.874Z,9.5584
2019-04-20T04:40:14.875Z,9.5383
2019-04-20T04:41:13.638Z,9.5383
2019-04-20T04:42:25.117Z,9.5383
2019-04-20T04:43:26.732Z,9.5383
2019-04-20T04:44:30.231Z,9.5483
2019-04-20T04:45:26.541Z,9.5584
2019-04-20T04:46:33.895Z,9.5483
2019-04-20T04:47:39.306Z,9.5483
2019-04-20T04:48:45.978Z,9.5483
2019-04-20T04:50:01.054Z,9.5483
2019-04-20T04:51:03.843Z,9.5483
2019-04-20T04:52:11.161Z,9.5483
2019-04-20T04:53:27.175Z,9.5483
2019-04-20T04:54:34.051Z,9.5483
2019-04-20T04:55:41.767Z,9.5383
2019-04-20T04:56:39.626Z,9.5483
2019-04-20T04:57:43.244Z,9.5584
2019-04-20T04:58:46.756Z,9.5786
2019-04-20T04:59:50.821Z,9.5786
2019-04-20T05:01:03.761Z,9.5786
2019-04-20T05:02:03.410Z,9.5584
2019-04-20T05:03:23.422Z,9.5483
2019-04-20T05:04:33.937Z,9.5483
2019-04-20T05:05:41.360Z,9.5383
2019-04-20T05:06:46.996Z,9.5383
2019-04-20T05:07:52.169Z,9.5383
2019-04-20T05:08:51.378Z,9.5383
2019-04-20T05:09:54.873Z,9.5383
2019-04-20T05:10:58.343Z,9.5383
2019-04-20T05:12:07.209Z,9.5081
2019-04-20T05:13:09.311Z,9.4980
2019-04-20T05:14:20.284Z,9.4980
2019-04-20T05:15:33.671Z,9.4980
2019-04-20T05:16:45.090Z,9.4778
2019-04-20T05:18:00.210Z,9.4778
2019-04-20T05:19:10.484Z,9.4778
2019-04-20T05:20:09.280Z,9.4778
2019-04-20T05:21:24.496Z,9.4678
2019-04-20T05:22:35.149Z,9.4678
2019-04-20T05:23:28.025Z,9.4678
2019-04-20T05:24:41.402Z,9.4778
2019-04-20T05:25:57.081Z,9.4678
2019-04-20T05:27:01.899Z,9.4577
2019-04-20T05:28:08.198Z,9.4678
2019-04-20T05:29:06.764Z,9.4980
2019-04-20T05:30:05.571Z,9.5081
2019-04-20T05:31:10.230Z,9.4980
2019-04-20T05:32:18.545Z,9.4980
2019-04-20T05:33:34.177Z,9.4778
2019-04-20T05:34:54.094Z,9.4980
2019-04-20T05:36:01.860Z,9.5081
2019-04-20T05:37:17.708Z,9.5081
2019-04-20T05:38:23.075Z,9.5483
2019-04-20T05:39:27.745Z,9.5786
2019-04-20T05:40:35.229Z,9.6188
2019-04-20T05:41:38.331Z,9.6390
2019-04-20T05:42:48.662Z,9.6591
2019-04-20T05:43:50.570Z,9.6893
2019-04-20T05:45:01.883Z,9.6893
2019-04-20T05:46:06.251Z,9.7195
2019-04-20T05:47:18.085Z,9.6893
2019-04-20T05:48:20.513Z,9.6893
2019-04-20T05:49:34.515Z,9.6793
2019-04-20T05:50:42.382Z,9.6893
2019-04-20T05:51:47.718Z,9.6893
2019-04-20T05:53:01.676Z,9.6793
2019-04-20T05:54:11.957Z,9.6793
2019-04-20T05:55:16.181Z,9.6793
2019-04-20T05:56:29.346Z,9.6793
2019-04-20T05:57:34.948Z,9.6793
2019-04-20T05:58:38.787Z,9.7195
2019-04-20T05:59:51.377Z,9.7598
2019-04-20T06:01:01.621Z,9.7900
2019-04-20T06:02:08.034Z,9.8303
2019-04-20T06:03:05.673Z,9.8404
2019-04-20T06:04:30.217Z,9.9109
2019-04-20T06:05:28.726Z,9.9109
2019-04-20T06:06:37.681Z,9.9512
2019-04-20T06:07:42.407Z,9.9915
2019-04-20T06:08:56.627Z,10.0217
2019-04-20T06:09:59.682Z,10.0519
2019-04-20T06:11:07.985Z,10.1022
2019-04-20T06:12:19.847Z,10.1224
2019-04-20T06:13:17.791Z,10.1324
2019-04-20T06:14:17.203Z,10.1526
2019-04-20T06:15:42.079Z,10.1627
2019-04-20T06:16:52.776Z,10.1727
2019-04-20T06:17:53.180Z,10.2029
2019-04-20T06:19:18.260Z,10.2029
2019-04-20T06:20:12.748Z,10.2332
2019-04-20T06:21:26.577Z,10.2332
2019-04-20T06:22:31.022Z,10.2231
2019-04-20T06:23:41.529Z,10.2231
2019-04-20T06:24:53.110Z,10.2332
2019-04-20T06:26:03.837Z,10.2634
2019-04-20T06:27:00.826Z,10.2835
2019-04-20T06:28:06.653Z,10.3036
2019-04-20T06:29:16.433Z,10.3339
2019-04-20T06:30:20.896Z,10.3339
2019-04-20T06:31:32.476Z,10.3137
2019-04-20T06:32:40.385Z,10.3137
2019-04-20T06:34:01.478Z,10.3137
2019-04-20T06:34:53.507Z,10.3137
2019-04-20T06:36:14.021Z,10.3439
2019-04-20T06:37:09.872Z,10.3842
2019-04-20T06:38:38.324Z,10.3842
2019-04-20T06:40:59.361Z,10.3741
2019-04-20T06:42:02.250Z,10.3741
2019-04-20T06:42:53.483Z,10.3741
2019-04-20T06:44:03.841Z,10.4044
2019-04-20T06:45:16.221Z,10.4245
2019-04-20T06:46:14.833Z,10.4648
2019-04-20T06:47:27.300Z,10.4950
2019-04-20T06:48:41.372Z,10.5051
2019-04-20T06:49:55.090Z,10.5353
2019-04-20T06:50:44.747Z,10.5554
2019-04-20T06:51:59.324Z,10.5655
2019-04-20T06:53:12.935Z,10.5554
2019-04-20T06:54:05.497Z,10.5554
2019-04-20T06:55:14.250Z,10.5554
2019-04-20T06:56:33.632Z,10.5655
2019-04-20T06:57:36.821Z,10.5655
2019-04-20T06:58:54.474Z,10.6058
2019-04-20T06:59:58.016Z,10.6662
2019-04-20T07:01:03.689Z,10.6863
2019-04-20T07:02:17.278Z,10.6863
2019-04-20T07:03:30.976Z,10.7468
2019-04-20T07:04:38.765Z,10.7770
2019-04-20T07:05:34.681Z,10.7770
2019-04-20T07:09:00.565Z,10.8575
2019-04-20T07:11:19.482Z,10.9381
2019-04-20T07:12:17.194Z,10.9885
2019-04-20T07:13:17.658Z,10.9985
2019-04-20T07:14:28.944Z,11.0791
2019-04-20T07:15:42.747Z,11.1496
2019-04-20T07:16:53.179Z,11.2201
2019-04-20T07:18:06.132Z,11.2906
2019-04-20T07:19:07.882Z,11.3309
2019-04-20T07:20:12.840Z,11.3510
2019-04-20T07:21:37.519Z,11.3712
2019-04-20T07:23:42.290Z,11.4014
2019-04-20T07:24:59.291Z,11.4316
2019-04-20T07:26:02.314Z,11.5021
2019-04-20T07:27:10.380Z,11.5424
2019-04-20T07:28:24.152Z,11.5726
2019-04-20T07:29:26.961Z,11.6229
2019-04-20T07:30:33.454Z,11.6632
2019-04-20T07:31:38.025Z,11.6934
2019-04-20T07:32:52.525Z,11.7236
2019-04-20T07:33:52.105Z,11.7236
2019-04-20T07:35:03.062Z,11.7841
2019-04-20T07:36:15.431Z,11.8344
2019-04-20T07:38:36.584Z,11.8848
2019-04-20T07:39:37.312Z,11.9351
2019-04-20T07:40:38.189Z,11.9351
2019-04-20T07:41:57.257Z,11.9351
2019-04-20T07:42:55.364Z,11.9855
2019-04-20T07:44:28.091Z,12.0157
2019-04-20T07:45:16.952Z,12.0660
2019-04-20T07:46:37.556Z,12.1164
2019-04-20T07:47:34.465Z,12.1667
2019-04-20T07:48:39.528Z,12.1768
2019-04-20T07:49:41.624Z,12.2473
2019-04-20T07:50:44.883Z,12.3077
2019-04-20T07:51:43.867Z,12.3480
2019-04-20T07:53:07.449Z,12.3682
2019-04-20T07:54:24.704Z,12.3883
2019-04-20T07:56:39.388Z,12.4689
2019-04-20T07:57:40.497Z,12.4991
2019-04-20T07:58:40.103Z,12.5696
2019-04-20T07:59:59.079Z,12.5797
2019-04-20T08:01:19.665Z,12.6199
2019-04-20T08:02:28.981Z,12.6501
2019-04-20T08:03:29.366Z,12.6804
2019-04-20T08:04:30.053Z,12.6703
2019-04-20T08:05:31.124Z,12.7005
2019-04-20T08:06:36.889Z,12.7509
2019-04-20T08:07:44.752Z,12.7509
2019-04-20T08:08:58.668Z,12.7811
2019-04-20T08:09:58.472Z,12.7911
2019-04-20T08:11:16.430Z,12.7911
2019-04-20T08:12:34.086Z,12.7911
2019-04-20T08:13:42.094Z,12.8012
2019-04-20T08:14:44.453Z,12.8214
2019-04-20T08:18:07.053Z,12.8616
2019-04-20T08:19:12.281Z,12.8516
2019-04-20T08:20:23.317Z,12.8314
2019-04-20T08:21:28.593Z,12.8012
2019-04-20T08:22:42.079Z,12.7811
2019-04-20T08:23:44.088Z,12.7609
2019-04-20T08:24:48.778Z,12.7307
2019-04-20T08:25:56.076Z,12.7307
2019-04-20T08:26:55.885Z,12.7307
2019-04-20T08:27:59.108Z,12.7609
2019-04-20T08:29:09.186Z,12.7811
2019-04-20T08:30:32.307Z,12.8214
2019-04-20T08:31:33.494Z,12.8516
2019-04-20T08:32:45.220Z,12.8717
2019-04-20T08:34:07.778Z,12.9120
2019-04-20T08:35:10.473Z,12.9422
2019-04-20T08:36:10.803Z,12.9825
2019-04-20T08:37:17.467Z,12.9825
2019-04-20T08:39:46.365Z,13.0127
2019-04-20T08:40:45.807Z,13.0328
2019-04-20T08:41:58.893Z,13.0832
2019-04-20T08:43:11.204Z,13.0832
2019-04-20T08:44:21.429Z,13.0832
2019-04-20T08:45:16.767Z,13.0832
2019-04-20T08:46:20.615Z,13.0933
2019-04-20T08:47:38.195Z,13.0933
2019-04-20T08:48:43.571Z,13.0933
2019-04-20T08:49:49.179Z,13.0933
2019-04-20T08:50:58.439Z,13.1134
2019-04-20T08:52:12.840Z,13.0530
2019-04-20T08:54:16.456Z,13.0429
2019-04-20T08:55:23.390Z,13.0530
2019-04-20T08:56:24.608Z,13.0530
2019-04-20T08:57:22.612Z,13.0328
2019-04-20T08:58:25.296Z,13.0328
2019-04-20T08:59:27.318Z,13.0832
2019-04-20T09:00:38.328Z,13.0933
2019-04-20T09:01:39.438Z,13.1335
2019-04-20T09:02:48.906Z,13.1537
2019-04-20T09:04:03.523Z,13.1235
2019-04-20T09:05:04.919Z,13.1134
2019-04-20T09:06:24.959Z,13.1134
2019-04-20T09:07:22.580Z,13.0933
2019-04-20T09:08:29.848Z,13.0832
2019-04-20T09:09:55.813Z,13.1235
2019-04-20T09:11:00.030Z,13.1537
2019-04-20T09:12:07.584Z,13.1839
2019-04-20T09:13:08.336Z,13.2040
2019-04-20T09:14:05.909Z,13.2745
2019-04-20T09:15:10.572Z,13.3350
2019-04-20T09:16:13.329Z,13.3752
2019-04-20T09:17:24.338Z,13.4055
2019-04-20T09:18:31.292Z,13.4155
2019-04-20T09:19:42.760Z,13.4558
2019-04-20T09:20:50.711Z,13.4860
2019-04-20T09:21:55.147Z,13.5162
2019-04-20T09:23:14.573Z,13.5968
2019-04-20T09:24:32.982Z,13.7881
2019-04-20T09:25:48.393Z,14.1507
2019-04-20T09:26:42.292Z,14.8557
2019-04-20T09:27:38.411Z,15.7620
2019-04-20T09:28:48.000Z,16.6785
2019-04-20T09:30:03.333Z,17.4942
2019-04-20T09:31:11.944Z,18.2294
2019-04-20T09:32:16.914Z,18.9545
2019-04-20T09:33:28.896Z,19.6191
2019-04-20T09:34:41.886Z,20.2133
2019-04-20T09:35:42.923Z,20.7672
2019-04-20T09:36:48.399Z,21.2405
2019-04-20T09:38:01.808Z,21.6937
2019-04-20T09:39:01.175Z,22.0663
2019-04-20T09:40:15.867Z,22.4088
2019-04-20T09:41:35.346Z,22.7209
2019-04-20T09:42:14.312Z,23.0331
2019-04-20T09:43:18.547Z,23.3051
2019-04-20T09:44:25.635Z,23.6072
2019-04-20T09:45:37.354Z,23.9294
2019-04-20T09:46:44.390Z,24.2416
2019-04-20T09:47:51.187Z,24.5337
2019-04-20T09:48:59.012Z,24.7250
2019-04-20T09:50:20.946Z,24.9466
2019-04-20T09:51:30.204Z,25.2185
2019-04-20T09:52:32.201Z,25.3998
2019-04-20T09:53:39.389Z,25.5408
2019-04-20T09:54:45.969Z,25.6818
2019-04-20T09:55:59.490Z,25.8429
2019-04-20T09:57:09.117Z,25.9839
2019-04-20T09:58:12.311Z,26.0745
2019-04-20T09:59:22.038Z,26.1752
2019-04-20T10:00:28.906Z,26.2558
2019-04-20T10:01:31.235Z,26.3968
2019-04-20T10:02:34.472Z,26.5479
2019-04-20T10:03:38.818Z,26.6788
2019-04-20T10:04:42.289Z,26.7392
2019-04-20T10:05:45.483Z,26.8097
2019-04-20T10:06:49.613Z,26.9608
2019-04-20T10:07:56.912Z,27.1219
2019-04-20T10:09:03.477Z,27.3334
2019-04-20T10:10:17.860Z,27.5146
2019-04-20T10:11:17.264Z,27.7060
2019-04-20T10:12:21.727Z,27.8671
2019-04-20T10:13:25.312Z,27.8973
2019-04-20T10:14:28.882Z,27.9276
2019-04-20T10:15:32.990Z,28.0383
2019-04-20T10:16:37.739Z,28.0383
2019-04-20T10:17:41.481Z,27.9578
2019-04-20T10:18:48.113Z,27.9477
2019-04-20T10:19:53.431Z,27.9578
2019-04-20T10:20:56.280Z,28.0484
2019-04-20T10:22:02.415Z,28.1088
2019-04-20T10:23:06.697Z,28.1491
2019-04-20T10:24:10.528Z,28.2498
2019-04-20T10:25:13.317Z,28.3807
2019-04-20T10:26:16.464Z,28.3505
2019-04-20T10:27:20.570Z,28.1390
2019-04-20T10:28:25.530Z,27.9779
2019-04-20T10:29:28.370Z,27.9175
2019-04-20T10:30:32.466Z,27.9175
2019-04-20T10:31:42.644Z,27.8973
2019-04-20T10:32:47.235Z,27.8873
2019-04-20T10:33:51.445Z,27.9477
2019-04-20T10:34:54.876Z,28.0685
2019-04-20T10:35:59.442Z,28.1491
2019-04-20T10:37:03.749Z,28.2196
2019-04-20T10:38:07.528Z,28.2498
2019-04-20T10:39:10.877Z,28.3203
2019-04-20T10:40:27.973Z,28.4109
2019-04-20T10:41:36.135Z,28.4714
2019-04-20T10:42:30.267Z,28.5419
2019-04-20T10:43:33.354Z,28.5721
2019-04-20T10:44:36.921Z,28.6224
2019-04-20T10:45:41.224Z,28.6627
2019-04-20T10:46:44.929Z,28.6728
2019-04-20T10:47:48.278Z,28.7231
2019-04-20T10:48:53.304Z,28.7634
2019-04-20T10:49:58.887Z,28.8943
2019-04-20T10:51:03.131Z,29.0756
2019-04-20T10:52:07.485Z,29.1864
2019-04-20T10:53:10.343Z,29.2670
2019-04-20T10:54:14.223Z,29.4382
2019-04-20T10:55:18.599Z,29.5892
2019-04-20T10:56:21.443Z,29.7302
2019-04-20T10:57:25.670Z,29.8813
2019-04-20T10:58:29.587Z,30.0223
2019-04-20T10:59:32.389Z,30.1028
2019-04-20T11:00:35.589Z,30.1834
2019-04-20T11:01:38.317Z,30.2539
2019-04-20T11:02:43.940Z,30.3043
2019-04-20T11:03:48.275Z,30.3143
2019-04-20T11:04:52.538Z,30.3043
2019-04-20T11:05:56.415Z,30.2841
2019-04-20T11:07:00.722Z,30.3546
2019-04-20T11:08:04.393Z,30.4352
2019-04-20T11:09:08.745Z,30.5258
2019-04-20T11:10:19.792Z,30.5359
2019-04-20T11:11:25.218Z,30.5460
2019-04-20T11:12:28.469Z,30.4654
2019-04-20T11:13:31.342Z,30.4050
2019-04-20T11:14:37.212Z,30.3546
2019-04-20T11:15:44.427Z,30.3445
2019-04-20T11:16:48.462Z,30.3244
2019-04-20T11:17:51.435Z,30.3546
2019-04-20T11:18:55.497Z,30.3546
2019-04-20T11:19:59.188Z,30.3546
2019-04-20T11:21:03.525Z,30.3748
2019-04-20T11:22:06.316Z,30.3748
2019-04-20T11:23:10.629Z,30.3949
2019-04-20T11:24:14.371Z,30.3143
2019-04-20T11:25:17.345Z,30.2539
2019-04-20T11:26:20.344Z,30.1834
2019-04-20T11:27:23.304Z,30.1331
2019-04-20T11:28:26.326Z,30.1230
2019-04-20T11:29:29.290Z,30.1230
2019-04-20T11:30:32.342Z,30.1230
2019-04-20T11:31:39.513Z,30.0928
2019-04-20T11:32:44.331Z,30.1331
2019-04-20T11:33:48.025Z,30.1633
2019-04-20T11:34:51.325Z,30.0827
2019-04-20T11:35:54.988Z,30.1230
2019-04-20T11:36:59.233Z,30.1532
2019-04-20T11:38:02.946Z,30.1633
2019-04-20T11:39:07.127Z,30.1633
2019-04-20T11:40:10.918Z,30.1331
2019-04-20T11:41:22.753Z,30.1028
2019-04-20T11:42:23.544Z,30.0626
2019-04-20T11:43:26.285Z,30.0626
2019-04-20T11:44:31.457Z,30.0928
2019-04-20T11:45:38.422Z,30.1331
2019-04-20T11:46:42.803Z,30.0928
2019-04-20T11:47:47.400Z,30.0323
2019-04-20T11:48:51.707Z,29.9719
2019-04-20T11:49:55.461Z,29.9014
2019-04-20T11:50:58.353Z,29.8611
2019-04-20T11:52:01.521Z,29.8209
2019-04-20T11:53:05.265Z,29.7806
2019-04-20T11:54:08.377Z,29.7101
2019-04-20T11:55:12.519Z,29.6094
2019-04-20T11:56:23.806Z,29.6094
2019-04-20T11:57:23.313Z,29.6497
2019-04-20T11:58:26.306Z,29.5892
2019-04-20T11:59:30.346Z,29.5087
2019-04-20T12:00:34.290Z,29.4986
2019-04-20T12:01:47.651Z,29.4986
2019-04-20T12:02:53.560Z,29.5389
2019-04-20T12:04:04.110Z,29.6295
2019-04-20T12:05:17.357Z,29.7101
2019-04-20T12:06:13.306Z,29.7101
2019-04-20T12:07:19.223Z,29.5389
2019-04-20T12:08:22.941Z,29.3475
2019-04-20T12:09:26.342Z,29.1864
2019-04-20T12:10:30.049Z,29.0353
2019-04-20T12:11:47.533Z,28.8943
2019-04-20T12:12:47.293Z,28.6627
2019-04-20T12:13:50.307Z,28.3707
2019-04-20T12:14:54.671Z,28.1088
2019-04-20T12:15:59.360Z,27.8470
2019-04-20T12:17:03.672Z,27.5549
2019-04-20T12:18:07.583Z,27.2025
2019-04-20T12:19:10.553Z,26.8802
2019-04-20T12:20:14.533Z,26.5881
2019-04-20T12:21:17.286Z,26.3364
2019-04-20T12:22:21.506Z,26.0645
2019-04-20T12:23:24.528Z,25.8127
2019-04-20T12:24:27.310Z,25.5911
2019-04-20T12:25:34.173Z,25.3998
2019-04-20T12:26:38.681Z,25.2084
2019-04-20T12:27:48.806Z,25.0372
2019-04-20T12:28:49.686Z,24.9567
2019-04-20T12:29:52.277Z,24.8761
2019-04-20T12:31:03.053Z,24.8056
2019-04-20T12:32:05.431Z,24.6948
2019-04-20T12:33:11.501Z,24.5438
2019-04-20T12:34:14.317Z,24.4330
2019-04-20T12:35:18.163Z,24.3524
2019-04-20T12:36:21.319Z,24.2819
2019-04-20T12:37:25.068Z,24.2316
2019-04-20T12:38:28.374Z,24.2114
2019-04-20T12:39:31.308Z,24.2416
2019-04-20T12:40:35.417Z,24.2920
2019-04-20T12:41:45.345Z,24.3826
2019-04-20T12:42:46.635Z,24.4330
2019-04-20T12:43:49.815Z,24.4833
2019-04-20T12:44:53.427Z,24.6042
2019-04-20T12:45:55.853Z,24.7351
2019-04-20T12:46:59.642Z,24.9265
2019-04-20T12:48:03.773Z,25.1279
2019-04-20T12:49:07.671Z,25.1782
2019-04-20T12:50:11.872Z,25.0977
2019-04-20T12:51:15.583Z,25.0272
2019-04-20T12:52:18.583Z,24.9466
2019-04-20T12:53:22.344Z,24.8560
2019-04-20T12:54:25.326Z,24.8056
2019-04-20T12:55:28.401Z,24.7955
2019-04-20T12:56:32.663Z,24.8056
2019-04-20T12:57:36.552Z,24.8358
2019-04-20T12:58:42.968Z,24.8560
2019-04-20T12:59:48.712Z,24.9768
2019-04-20T13:00:52.429Z,25.1279
2019-04-20T13:01:55.490Z,25.2588
2019-04-20T13:02:59.150Z,25.3595
2019-04-20T13:04:04.499Z,25.4099
2019-04-20T13:05:09.427Z,25.4099
2019-04-20T13:06:12.276Z,25.3192
2019-04-20T13:07:15.627Z,25.1379
2019-04-20T13:08:29.595Z,24.9265
2019-04-20T13:09:26.397Z,24.6848
2019-04-20T13:10:29.612Z,24.3927
2019-04-20T13:11:44.353Z,24.1812
2019-04-20T13:12:40.679Z,24.0805
2019-04-20T13:13:44.339Z,24.0604
2019-04-20T13:14:48.443Z,24.1711
2019-04-20T13:15:52.149Z,24.3021
2019-04-20T13:16:56.825Z,24.4028
2019-04-20T13:18:01.245Z,24.5337
2019-04-20T13:19:05.608Z,24.6948
2019-04-20T13:20:08.307Z,24.9466
2019-04-20T13:21:11.349Z,25.2084
2019-04-20T13:22:14.839Z,25.4703
2019-04-20T13:23:20.144Z,25.7523
2019-04-20T13:24:23.324Z,26.0745
2019-04-20T13:25:26.380Z,26.3766
2019-04-20T13:26:29.329Z,26.6586
2019-04-20T13:27:32.304Z,26.9910
2019-04-20T13:28:35.310Z,27.2629
2019-04-20T13:29:38.395Z,27.4442
2019-04-20T13:30:41.893Z,27.5751
2019-04-20T13:31:45.272Z,27.6657
2019-04-20T13:32:48.332Z,27.7362
2019-04-20T13:33:51.641Z,27.7765
2019-04-20T13:34:54.366Z,27.7463
2019-04-20T13:35:58.473Z,27.5851
2019-04-20T13:37:02.256Z,27.3636
2019-04-20T13:38:05.301Z,27.1118
2019-04-20T13:39:08.324Z,26.7694
2019-04-20T13:40:11.335Z,26.3968
2019-04-20T13:41:15.668Z,26.0242
2019-04-20T13:42:24.556Z,25.6918
2019-04-20T13:43:27.961Z,25.3998
2019-04-20T13:44:32.399Z,25.1581
2019-04-20T13:45:35.282Z,24.9768
2019-04-20T13:46:38.887Z,24.8358
2019-04-20T13:47:43.208Z,24.6646
2019-04-20T13:48:46.842Z,24.4833
2019-04-20T13:49:51.348Z,24.2618
2019-04-20T13:50:56.074Z,24.0201
2019-04-20T13:51:59.321Z,23.7784
2019-04-20T13:53:03.374Z,23.5870
2019-04-20T13:54:13.146Z,23.3856
2019-04-20T13:55:14.852Z,23.1842
2019-04-20T13:56:19.455Z,23.0634
2019-04-20T13:57:22.301Z,22.9626